sensor_id;sensor_type;location;lat;lon;timestamp;P1;durP1;ratioP1;P2;durP2;ratioP2
18905;SDS011;9585;51.018;4.282;2023-04-19T00:00:25;19.27;;;16.27;;
18905;SDS011;9585;51.018;4.282;2023-04-19T00:02:53;19.42;;;15.82;;
18905;SDS011;9585;51.018;4.282;2023-04-19T00:05:22;18.92;;;16.52;;
18905;SDS011;9585;51.018;4.282;2023-04-19T00:07:50;20.35;;;16.95;;
18905;SDS011;9585;51.018;4.282;2023-04-19T00:10:17;19.63;;;16.67;;
18905;SDS011;9585;51.018;4.282;2023-04-19T00:12:45;21.02;;;17.40;;
18905;SDS011;9585;51.018;4.282;2023-04-19T00:15:12;20.75;;;16.20;;
18905;SDS011;9585;51.018;4.282;2023-04-19T00:17:40;17.77;;;15.88;;
18905;SDS011;9585;51.018;4.282;2023-04-19T00:20:08;19.98;;;16.95;;
18905;SDS011;9585;51.018;4.282;2023-04-19T00:22:38;20.00;;;16.70;;
18905;SDS011;9585;51.018;4.282;2023-04-19T00:25:06;19.60;;;16.73;;
18905;SDS011;9585;51.018;4.282;2023-04-19T00:27:34;19.50;;;16.67;;
18905;SDS011;9585;51.018;4.282;2023-04-19T00:30:02;19.23;;;16.50;;
18905;SDS011;9585;51.018;4.282;2023-04-19T00:32:29;20.10;;;16.40;;
18905;SDS011;9585;51.018;4.282;2023-04-19T00:34:57;20.90;;;16.83;;
18905;SDS011;9585;51.018;4.282;2023-04-19T00:37:24;19.73;;;16.65;;
18905;SDS011;9585;51.018;4.282;2023-04-19T00:39:53;20.17;;;17.33;;
18905;SDS011;9585;51.018;4.282;2023-04-19T00:42:21;22.25;;;17.88;;
18905;SDS011;9585;51.018;4.282;2023-04-19T00:44:48;20.10;;;17.65;;
18905;SDS011;9585;51.018;4.282;2023-04-19T00:47:16;19.08;;;16.40;;
18905;SDS011;9585;51.018;4.282;2023-04-19T00:49:44;21.25;;;17.58;;
18905;SDS011;9585;51.018;4.282;2023-04-19T00:52:11;20.58;;;17.35;;
18905;SDS011;9585;51.018;4.282;2023-04-19T00:54:39;20.95;;;17.60;;
18905;SDS011;9585;51.018;4.282;2023-04-19T00:57:10;19.42;;;16.55;;
18905;SDS011;9585;51.018;4.282;2023-04-19T00:59:38;20.88;;;17.55;;
18905;SDS011;9585;51.018;4.282;2023-04-19T01:02:06;21.48;;;17.63;;
18905;SDS011;9585;51.018;4.282;2023-04-19T01:04:34;20.02;;;17.52;;
18905;SDS011;9585;51.018;4.282;2023-04-19T01:07:02;21.73;;;17.77;;
18905;SDS011;9585;51.018;4.282;2023-04-19T01:09:31;23.08;;;18.33;;
18905;SDS011;9585;51.018;4.282;2023-04-19T01:11:59;22.10;;;18.00;;
18905;SDS011;9585;51.018;4.282;2023-04-19T01:14:29;20.65;;;18.00;;
18905;SDS011;9585;51.018;4.282;2023-04-19T01:16:56;21.85;;;18.33;;
18905;SDS011;9585;51.018;4.282;2023-04-19T01:19:23;22.20;;;18.02;;
18905;SDS011;9585;51.018;4.282;2023-04-19T01:21:51;21.80;;;18.15;;
18905;SDS011;9585;51.018;4.282;2023-04-19T01:24:22;22.25;;;18.42;;
18905;SDS011;9585;51.018;4.282;2023-04-19T01:26:49;21.00;;;16.60;;
18905;SDS011;9585;51.018;4.282;2023-04-19T01:29:17;21.00;;;18.23;;
18905;SDS011;9585;51.018;4.282;2023-04-19T01:31:46;21.80;;;17.50;;
18905;SDS011;9585;51.018;4.282;2023-04-19T01:34:17;21.55;;;18.95;;
18905;SDS011;9585;51.018;4.282;2023-04-19T01:36:45;23.60;;;18.35;;
18905;SDS011;9585;51.018;4.282;2023-04-19T01:39:13;21.10;;;18.65;;
18905;SDS011;9585;51.018;4.282;2023-04-19T01:41:42;22.13;;;18.40;;
18905;SDS011;9585;51.018;4.282;2023-04-19T01:44:09;21.83;;;19.10;;
18905;SDS011;9585;51.018;4.282;2023-04-19T01:46:38;22.75;;;19.23;;
18905;SDS011;9585;51.018;4.282;2023-04-19T01:49:07;22.63;;;18.38;;
18905;SDS011;9585;51.018;4.282;2023-04-19T01:51:35;22.70;;;18.02;;
18905;SDS011;9585;51.018;4.282;2023-04-19T01:54:03;22.13;;;18.60;;
18905;SDS011;9585;51.018;4.282;2023-04-19T01:56:31;25.60;;;19.55;;
18905;SDS011;9585;51.018;4.282;2023-04-19T01:59:00;22.25;;;18.90;;
18905;SDS011;9585;51.018;4.282;2023-04-19T02:01:28;24.27;;;18.52;;
18905;SDS011;9585;51.018;4.282;2023-04-19T02:03:55;22.02;;;18.50;;
18905;SDS011;9585;51.018;4.282;2023-04-19T02:06:23;21.08;;;18.10;;
18905;SDS011;9585;51.018;4.282;2023-04-19T02:08:52;22.20;;;18.92;;
18905;SDS011;9585;51.018;4.282;2023-04-19T02:11:19;21.15;;;18.42;;
18905;SDS011;9585;51.018;4.282;2023-04-19T02:13:47;21.90;;;19.10;;
18905;SDS011;9585;51.018;4.282;2023-04-19T02:16:16;22.52;;;18.80;;
18905;SDS011;9585;51.018;4.282;2023-04-19T02:18:43;21.35;;;18.33;;
18905;SDS011;9585;51.018;4.282;2023-04-19T02:21:12;21.42;;;18.10;;
18905;SDS011;9585;51.018;4.282;2023-04-19T02:23:40;22.75;;;18.73;;
18905;SDS011;9585;51.018;4.282;2023-04-19T02:26:07;22.45;;;18.45;;
18905;SDS011;9585;51.018;4.282;2023-04-19T02:28:35;21.83;;;18.48;;
18905;SDS011;9585;51.018;4.282;2023-04-19T02:31:04;22.45;;;19.13;;
18905;SDS011;9585;51.018;4.282;2023-04-19T02:33:34;19.98;;;17.88;;
18905;SDS011;9585;51.018;4.282;2023-04-19T02:36:01;20.40;;;18.15;;
18905;SDS011;9585;51.018;4.282;2023-04-19T02:38:29;26.35;;;18.70;;
18905;SDS011;9585;51.018;4.282;2023-04-19T02:40:57;23.92;;;18.90;;
18905;SDS011;9585;51.018;4.282;2023-04-19T02:43:25;20.77;;;17.95;;
18905;SDS011;9585;51.018;4.282;2023-04-19T02:45:53;20.83;;;17.80;;
18905;SDS011;9585;51.018;4.282;2023-04-19T02:48:20;25.25;;;18.45;;
18905;SDS011;9585;51.018;4.282;2023-04-19T02:50:49;22.90;;;19.13;;
18905;SDS011;9585;51.018;4.282;2023-04-19T02:53:16;20.77;;;17.90;;
18905;SDS011;9585;51.018;4.282;2023-04-19T02:55:44;20.92;;;18.55;;
18905;SDS011;9585;51.018;4.282;2023-04-19T02:58:11;21.50;;;18.55;;
18905;SDS011;9585;51.018;4.282;2023-04-19T03:00:38;20.05;;;17.90;;
18905;SDS011;9585;51.018;4.282;2023-04-19T03:03:06;19.30;;;17.25;;
18905;SDS011;9585;51.018;4.282;2023-04-19T03:05:33;20.52;;;18.25;;
18905;SDS011;9585;51.018;4.282;2023-04-19T03:08:02;20.80;;;18.50;;
18905;SDS011;9585;51.018;4.282;2023-04-19T03:10:30;21.40;;;18.15;;
18905;SDS011;9585;51.018;4.282;2023-04-19T03:12:57;20.25;;;18.02;;
18905;SDS011;9585;51.018;4.282;2023-04-19T03:15:25;20.30;;;17.40;;
18905;SDS011;9585;51.018;4.282;2023-04-19T03:17:53;23.08;;;18.63;;
18905;SDS011;9585;51.018;4.282;2023-04-19T03:20:20;20.73;;;17.92;;
18905;SDS011;9585;51.018;4.282;2023-04-19T03:22:48;20.75;;;17.98;;
18905;SDS011;9585;51.018;4.282;2023-04-19T03:25:17;21.40;;;18.02;;
18905;SDS011;9585;51.018;4.282;2023-04-19T03:27:44;21.20;;;18.30;;
18905;SDS011;9585;51.018;4.282;2023-04-19T03:30:12;21.10;;;17.73;;
18905;SDS011;9585;51.018;4.282;2023-04-19T03:32:40;23.10;;;18.42;;
18905;SDS011;9585;51.018;4.282;2023-04-19T03:35:08;24.10;;;19.45;;
18905;SDS011;9585;51.018;4.282;2023-04-19T03:37:35;22.67;;;19.15;;
18905;SDS011;9585;51.018;4.282;2023-04-19T03:40:03;23.58;;;20.77;;
18905;SDS011;9585;51.018;4.282;2023-04-19T03:42:32;24.08;;;20.67;;
18905;SDS011;9585;51.018;4.282;2023-04-19T03:45:00;21.15;;;18.65;;
18905;SDS011;9585;51.018;4.282;2023-04-19T03:47:27;25.58;;;19.45;;
18905;SDS011;9585;51.018;4.282;2023-04-19T03:49:55;22.77;;;19.42;;
18905;SDS011;9585;51.018;4.282;2023-04-19T03:52:22;22.40;;;19.08;;
18905;SDS011;9585;51.018;4.282;2023-04-19T03:54:51;21.02;;;18.27;;
18905;SDS011;9585;51.018;4.282;2023-04-19T03:57:19;20.48;;;18.10;;
18905;SDS011;9585;51.018;4.282;2023-04-19T03:59:48;20.60;;;17.52;;
18905;SDS011;9585;51.018;4.282;2023-04-19T04:02:15;23.30;;;18.40;;
18905;SDS011;9585;51.018;4.282;2023-04-19T04:04:42;21.40;;;17.98;;
18905;SDS011;9585;51.018;4.282;2023-04-19T04:07:10;21.92;;;18.27;;
18905;SDS011;9585;51.018;4.282;2023-04-19T04:09:37;23.20;;;17.60;;
18905;SDS011;9585;51.018;4.282;2023-04-19T04:12:05;21.23;;;18.00;;
18905;SDS011;9585;51.018;4.282;2023-04-19T04:14:32;21.00;;;18.02;;
18905;SDS011;9585;51.018;4.282;2023-04-19T04:17:01;22.13;;;17.23;;
18905;SDS011;9585;51.018;4.282;2023-04-19T04:19:29;21.90;;;18.27;;
18905;SDS011;9585;51.018;4.282;2023-04-19T04:21:57;20.50;;;17.52;;
18905;SDS011;9585;51.018;4.282;2023-04-19T04:24:24;22.13;;;18.17;;
18905;SDS011;9585;51.018;4.282;2023-04-19T04:26:52;20.38;;;17.50;;
18905;SDS011;9585;51.018;4.282;2023-04-19T04:29:19;23.65;;;18.40;;
18905;SDS011;9585;51.018;4.282;2023-04-19T04:31:47;21.00;;;18.17;;
18905;SDS011;9585;51.018;4.282;2023-04-19T04:34:19;22.58;;;18.67;;
18905;SDS011;9585;51.018;4.282;2023-04-19T04:36:47;20.63;;;18.02;;
18905;SDS011;9585;51.018;4.282;2023-04-19T04:39:15;21.20;;;17.77;;
18905;SDS011;9585;51.018;4.282;2023-04-19T04:41:46;23.98;;;18.55;;
18905;SDS011;9585;51.018;4.282;2023-04-19T04:44:16;22.88;;;18.98;;
18905;SDS011;9585;51.018;4.282;2023-04-19T04:46:44;21.38;;;17.75;;
18905;SDS011;9585;51.018;4.282;2023-04-19T04:49:12;21.95;;;18.33;;
18905;SDS011;9585;51.018;4.282;2023-04-19T04:51:40;23.60;;;18.60;;
18905;SDS011;9585;51.018;4.282;2023-04-19T04:54:08;22.27;;;18.65;;
18905;SDS011;9585;51.018;4.282;2023-04-19T04:56:35;24.30;;;18.75;;
18905;SDS011;9585;51.018;4.282;2023-04-19T04:59:02;23.70;;;19.23;;
18905;SDS011;9585;51.018;4.282;2023-04-19T05:01:30;23.13;;;18.25;;
18905;SDS011;9585;51.018;4.282;2023-04-19T05:03:57;23.23;;;19.13;;
18905;SDS011;9585;51.018;4.282;2023-04-19T05:06:24;23.48;;;18.80;;
18905;SDS011;9585;51.018;4.282;2023-04-19T05:08:53;22.90;;;18.45;;
18905;SDS011;9585;51.018;4.282;2023-04-19T05:11:20;20.90;;;17.83;;
18905;SDS011;9585;51.018;4.282;2023-04-19T05:13:48;23.25;;;18.48;;
18905;SDS011;9585;51.018;4.282;2023-04-19T05:16:15;23.27;;;18.77;;
18905;SDS011;9585;51.018;4.282;2023-04-19T05:18:42;24.10;;;18.52;;
18905;SDS011;9585;51.018;4.282;2023-04-19T05:21:09;20.90;;;16.95;;
18905;SDS011;9585;51.018;4.282;2023-04-19T05:23:37;20.27;;;17.17;;
18905;SDS011;9585;51.018;4.282;2023-04-19T05:26:05;21.40;;;17.45;;
18905;SDS011;9585;51.018;4.282;2023-04-19T05:28:36;20.52;;;16.88;;
18905;SDS011;9585;51.018;4.282;2023-04-19T05:31:04;19.85;;;16.10;;
18905;SDS011;9585;51.018;4.282;2023-04-19T05:33:31;19.55;;;15.57;;
18905;SDS011;9585;51.018;4.282;2023-04-19T05:35:59;17.73;;;15.57;;
18905;SDS011;9585;51.018;4.282;2023-04-19T05:38:26;17.75;;;15.25;;
18905;SDS011;9585;51.018;4.282;2023-04-19T05:40:53;20.52;;;15.80;;
18905;SDS011;9585;51.018;4.282;2023-04-19T05:43:22;20.80;;;17.00;;
18905;SDS011;9585;51.018;4.282;2023-04-19T05:45:50;18.52;;;15.75;;
18905;SDS011;9585;51.018;4.282;2023-04-19T05:48:17;18.90;;;15.82;;
18905;SDS011;9585;51.018;4.282;2023-04-19T05:50:44;20.42;;;16.08;;
18905;SDS011;9585;51.018;4.282;2023-04-19T05:53:12;19.52;;;16.17;;
18905;SDS011;9585;51.018;4.282;2023-04-19T05:55:39;19.60;;;15.68;;
18905;SDS011;9585;51.018;4.282;2023-04-19T05:58:08;21.65;;;15.82;;
18905;SDS011;9585;51.018;4.282;2023-04-19T06:00:37;18.13;;;15.00;;
18905;SDS011;9585;51.018;4.282;2023-04-19T06:03:05;18.95;;;15.80;;
18905;SDS011;9585;51.018;4.282;2023-04-19T06:05:33;20.05;;;15.43;;
18905;SDS011;9585;51.018;4.282;2023-04-19T06:08:00;21.88;;;15.95;;
18905;SDS011;9585;51.018;4.282;2023-04-19T06:10:29;20.77;;;15.88;;
18905;SDS011;9585;51.018;4.282;2023-04-19T06:12:56;17.83;;;15.43;;
18905;SDS011;9585;51.018;4.282;2023-04-19T06:15:23;20.80;;;16.45;;
18905;SDS011;9585;51.018;4.282;2023-04-19T06:17:53;19.30;;;17.17;;
18905;SDS011;9585;51.018;4.282;2023-04-19T06:20:20;20.55;;;16.83;;
18905;SDS011;9585;51.018;4.282;2023-04-19T06:22:48;18.83;;;16.60;;
18905;SDS011;9585;51.018;4.282;2023-04-19T06:25:16;20.27;;;16.40;;
18905;SDS011;9585;51.018;4.282;2023-04-19T06:27:43;19.48;;;16.20;;
18905;SDS011;9585;51.018;4.282;2023-04-19T06:30:11;19.27;;;16.40;;
18905;SDS011;9585;51.018;4.282;2023-04-19T06:32:38;17.35;;;15.55;;
18905;SDS011;9585;51.018;4.282;2023-04-19T06:35:07;21.13;;;16.20;;
18905;SDS011;9585;51.018;4.282;2023-04-19T06:37:35;18.92;;;16.23;;
18905;SDS011;9585;51.018;4.282;2023-04-19T06:40:02;21.55;;;16.48;;
18905;SDS011;9585;51.018;4.282;2023-04-19T06:42:32;18.33;;;15.60;;
18905;SDS011;9585;51.018;4.282;2023-04-19T06:45:00;18.73;;;14.88;;
18905;SDS011;9585;51.018;4.282;2023-04-19T06:47:28;19.20;;;15.75;;
18905;SDS011;9585;51.018;4.282;2023-04-19T06:49:55;16.70;;;14.48;;
18905;SDS011;9585;51.018;4.282;2023-04-19T06:52:24;20.25;;;15.20;;
18905;SDS011;9585;51.018;4.282;2023-04-19T06:54:52;18.55;;;14.98;;
18905;SDS011;9585;51.018;4.282;2023-04-19T06:57:19;18.15;;;15.38;;
18905;SDS011;9585;51.018;4.282;2023-04-19T06:59:46;16.92;;;14.65;;
18905;SDS011;9585;51.018;4.282;2023-04-19T07:02:14;19.13;;;14.45;;
18905;SDS011;9585;51.018;4.282;2023-04-19T07:04:41;18.67;;;15.18;;
18905;SDS011;9585;51.018;4.282;2023-04-19T07:07:08;17.00;;;14.25;;
18905;SDS011;9585;51.018;4.282;2023-04-19T07:09:37;17.65;;;13.85;;
18905;SDS011;9585;51.018;4.282;2023-04-19T07:12:05;17.85;;;13.98;;
18905;SDS011;9585;51.018;4.282;2023-04-19T07:14:32;14.98;;;12.70;;
18905;SDS011;9585;51.018;4.282;2023-04-19T07:17:00;15.65;;;12.52;;
18905;SDS011;9585;51.018;4.282;2023-04-19T07:19:29;15.68;;;12.40;;
18905;SDS011;9585;51.018;4.282;2023-04-19T07:21:57;13.43;;;11.23;;
18905;SDS011;9585;51.018;4.282;2023-04-19T07:24:25;12.20;;;10.90;;
18905;SDS011;9585;51.018;4.282;2023-04-19T07:26:56;11.85;;;10.32;;
18905;SDS011;9585;51.018;4.282;2023-04-19T07:29:23;14.77;;;10.70;;
18905;SDS011;9585;51.018;4.282;2023-04-19T07:31:50;11.85;;;10.63;;
18905;SDS011;9585;51.018;4.282;2023-04-19T07:34:19;11.50;;;10.07;;
18905;SDS011;9585;51.018;4.282;2023-04-19T07:36:46;11.15;;;9.73;;
18905;SDS011;9585;51.018;4.282;2023-04-19T07:39:14;12.82;;;10.02;;
18905;SDS011;9585;51.018;4.282;2023-04-19T07:41:41;12.50;;;9.45;;
18905;SDS011;9585;51.018;4.282;2023-04-19T07:44:12;12.65;;;10.02;;
18905;SDS011;9585;51.018;4.282;2023-04-19T07:49:09;12.60;;;9.38;;
18905;SDS011;9585;51.018;4.282;2023-04-19T07:51:36;11.18;;;9.40;;
18905;SDS011;9585;51.018;4.282;2023-04-19T07:54:04;12.20;;;9.73;;
18905;SDS011;9585;51.018;4.282;2023-04-19T07:56:31;13.55;;;9.27;;
18905;SDS011;9585;51.018;4.282;2023-04-19T07:58:59;9.73;;;8.60;;
18905;SDS011;9585;51.018;4.282;2023-04-19T08:01:28;9.65;;;8.23;;
18905;SDS011;9585;51.018;4.282;2023-04-19T08:03:56;10.63;;;9.48;;
18905;SDS011;9585;51.018;4.282;2023-04-19T08:06:23;11.25;;;9.05;;
18905;SDS011;9585;51.018;4.282;2023-04-19T08:08:51;10.50;;;8.88;;
18905;SDS011;9585;51.018;4.282;2023-04-19T08:11:18;10.23;;;8.82;;
18905;SDS011;9585;51.018;4.282;2023-04-19T08:13:46;10.30;;;8.23;;
18905;SDS011;9585;51.018;4.282;2023-04-19T08:16:13;9.25;;;8.30;;
18905;SDS011;9585;51.018;4.282;2023-04-19T08:18:42;9.38;;;8.43;;
18905;SDS011;9585;51.018;4.282;2023-04-19T08:21:10;9.52;;;7.50;;
18905;SDS011;9585;51.018;4.282;2023-04-19T08:23:37;10.63;;;7.97;;
18905;SDS011;9585;51.018;4.282;2023-04-19T08:26:05;7.35;;;6.65;;
18905;SDS011;9585;51.018;4.282;2023-04-19T08:28:33;8.68;;;7.78;;
18905;SDS011;9585;51.018;4.282;2023-04-19T08:31:04;8.65;;;7.75;;
18905;SDS011;9585;51.018;4.282;2023-04-19T08:33:32;8.65;;;7.88;;
18905;SDS011;9585;51.018;4.282;2023-04-19T08:36:01;8.65;;;7.80;;
18905;SDS011;9585;51.018;4.282;2023-04-19T08:38:28;9.02;;;7.53;;
18905;SDS011;9585;51.018;4.282;2023-04-19T08:40:56;9.45;;;7.85;;
18905;SDS011;9585;51.018;4.282;2023-04-19T08:43:24;8.02;;;7.10;;
18905;SDS011;9585;51.018;4.282;2023-04-19T08:45:52;7.80;;;7.00;;
18905;SDS011;9585;51.018;4.282;2023-04-19T08:48:22;8.25;;;6.93;;
18905;SDS011;9585;51.018;4.282;2023-04-19T08:50:49;6.80;;;6.10;;
18905;SDS011;9585;51.018;4.282;2023-04-19T08:53:19;7.82;;;7.03;;
18905;SDS011;9585;51.018;4.282;2023-04-19T08:55:47;7.45;;;6.65;;
18905;SDS011;9585;51.018;4.282;2023-04-19T08:58:15;7.93;;;6.70;;
18905;SDS011;9585;51.018;4.282;2023-04-19T09:00:43;7.75;;;6.70;;
18905;SDS011;9585;51.018;4.282;2023-04-19T09:03:10;7.55;;;6.30;;
18905;SDS011;9585;51.018;4.282;2023-04-19T09:05:38;7.40;;;6.20;;
18905;SDS011;9585;51.018;4.282;2023-04-19T09:08:22;7.00;;;6.32;;
18905;SDS011;9585;51.018;4.282;2023-04-19T09:10:53;7.05;;;6.30;;
18905;SDS011;9585;51.018;4.282;2023-04-19T09:13:21;6.32;;;5.72;;
18905;SDS011;9585;51.018;4.282;2023-04-19T09:15:49;6.47;;;5.75;;
18905;SDS011;9585;51.018;4.282;2023-04-19T09:18:18;6.88;;;5.97;;
18905;SDS011;9585;51.018;4.282;2023-04-19T09:20:45;6.85;;;6.15;;
18905;SDS011;9585;51.018;4.282;2023-04-19T09:23:13;8.05;;;5.80;;
18905;SDS011;9585;51.018;4.282;2023-04-19T09:25:52;6.65;;;5.82;;
18905;SDS011;9585;51.018;4.282;2023-04-19T09:28:21;7.07;;;5.60;;
18905;SDS011;9585;51.018;4.282;2023-04-19T09:30:49;6.78;;;5.90;;
18905;SDS011;9585;51.018;4.282;2023-04-19T09:33:32;8.00;;;5.93;;
18905;SDS011;9585;51.018;4.282;2023-04-19T09:36:01;7.00;;;6.22;;
18905;SDS011;9585;51.018;4.282;2023-04-19T09:38:28;6.68;;;5.68;;
18905;SDS011;9585;51.018;4.282;2023-04-19T09:41:06;6.82;;;5.85;;
18905;SDS011;9585;51.018;4.282;2023-04-19T09:43:34;7.18;;;6.47;;
18905;SDS011;9585;51.018;4.282;2023-04-19T09:46:02;7.63;;;5.75;;
18905;SDS011;9585;51.018;4.282;2023-04-19T09:48:29;7.15;;;6.20;;
18905;SDS011;9585;51.018;4.282;2023-04-19T09:50:57;6.40;;;5.80;;
18905;SDS011;9585;51.018;4.282;2023-04-19T09:53:27;6.00;;;5.40;;
18905;SDS011;9585;51.018;4.282;2023-04-19T09:55:58;6.75;;;5.80;;
18905;SDS011;9585;51.018;4.282;2023-04-19T09:58:27;5.63;;;5.13;;
18905;SDS011;9585;51.018;4.282;2023-04-19T10:00:54;5.80;;;4.93;;
18905;SDS011;9585;51.018;4.282;2023-04-19T10:03:23;5.32;;;4.82;;
18905;SDS011;9585;51.018;4.282;2023-04-19T10:05:54;6.20;;;5.25;;
18905;SDS011;9585;51.018;4.282;2023-04-19T10:08:25;7.13;;;5.55;;
18905;SDS011;9585;51.018;4.282;2023-04-19T10:10:53;6.60;;;5.90;;
18905;SDS011;9585;51.018;4.282;2023-04-19T10:13:21;6.13;;;5.53;;
18905;SDS011;9585;51.018;4.282;2023-04-19T10:15:51;5.88;;;5.20;;
18905;SDS011;9585;51.018;4.282;2023-04-19T10:18:19;6.38;;;5.40;;
18905;SDS011;9585;51.018;4.282;2023-04-19T10:20:49;6.88;;;5.60;;
18905;SDS011;9585;51.018;4.282;2023-04-19T10:23:21;5.97;;;5.38;;
18905;SDS011;9585;51.018;4.282;2023-04-19T10:25:53;6.57;;;5.90;;
18905;SDS011;9585;51.018;4.282;2023-04-19T10:28:22;6.25;;;5.60;;
18905;SDS011;9585;51.018;4.282;2023-04-19T10:30:54;7.03;;;5.80;;
18905;SDS011;9585;51.018;4.282;2023-04-19T10:33:25;6.25;;;5.53;;
18905;SDS011;9585;51.018;4.282;2023-04-19T10:35:57;7.50;;;5.97;;
18905;SDS011;9585;51.018;4.282;2023-04-19T10:38:34;6.47;;;5.88;;
18905;SDS011;9585;51.018;4.282;2023-04-19T10:41:04;6.63;;;5.93;;
18905;SDS011;9585;51.018;4.282;2023-04-19T10:43:36;6.90;;;6.20;;
18905;SDS011;9585;51.018;4.282;2023-04-19T10:46:12;8.00;;;5.90;;
18905;SDS011;9585;51.018;4.282;2023-04-19T10:48:48;6.82;;;6.13;;
18905;SDS011;9585;51.018;4.282;2023-04-19T10:51:20;9.82;;;6.72;;
18905;SDS011;9585;51.018;4.282;2023-04-19T10:53:50;6.85;;;6.15;;
18905;SDS011;9585;51.018;4.282;2023-04-19T10:59:22;9.23;;;6.68;;
18905;SDS011;9585;51.018;4.282;2023-04-19T11:01:55;8.48;;;6.75;;
18905;SDS011;9585;51.018;4.282;2023-04-19T11:07:24;7.32;;;6.60;;
18905;SDS011;9585;51.018;4.282;2023-04-19T11:09:52;8.07;;;6.85;;
18905;SDS011;9585;51.018;4.282;2023-04-19T11:12:19;7.38;;;6.50;;
18905;SDS011;9585;51.018;4.282;2023-04-19T11:14:47;7.47;;;6.30;;
18905;SDS011;9585;51.018;4.282;2023-04-19T11:17:18;8.10;;;6.70;;
18905;SDS011;9585;51.018;4.282;2023-04-19T11:19:53;7.25;;;6.53;;
18905;SDS011;9585;51.018;4.282;2023-04-19T11:22:25;7.72;;;6.88;;
18905;SDS011;9585;51.018;4.282;2023-04-19T11:25:03;7.20;;;6.38;;
18905;SDS011;9585;51.018;4.282;2023-04-19T11:27:31;8.75;;;6.88;;
18905;SDS011;9585;51.018;4.282;2023-04-19T11:30:02;8.40;;;6.65;;
18905;SDS011;9585;51.018;4.282;2023-04-19T11:32:32;7.57;;;6.78;;
18905;SDS011;9585;51.018;4.282;2023-04-19T11:35:07;8.63;;;6.97;;
18905;SDS011;9585;51.018;4.282;2023-04-19T11:37:35;8.30;;;6.90;;
18905;SDS011;9585;51.018;4.282;2023-04-19T11:40:04;7.88;;;7.07;;
18905;SDS011;9585;51.018;4.282;2023-04-19T11:42:33;8.32;;;6.78;;
18905;SDS011;9585;51.018;4.282;2023-04-19T11:45:01;8.32;;;7.05;;
18905;SDS011;9585;51.018;4.282;2023-04-19T11:47:29;7.57;;;6.75;;
18905;SDS011;9585;51.018;4.282;2023-04-19T11:53:11;7.40;;;6.57;;
18905;SDS011;9585;51.018;4.282;2023-04-19T11:55:41;8.55;;;5.97;;
18905;SDS011;9585;51.018;4.282;2023-04-19T11:58:25;6.40;;;5.80;;
18905;SDS011;9585;51.018;4.282;2023-04-19T12:00:54;8.18;;;6.25;;
18905;SDS011;9585;51.018;4.282;2023-04-19T12:03:25;8.07;;;6.70;;
18905;SDS011;9585;51.018;4.282;2023-04-19T12:05:53;6.82;;;5.60;;
18905;SDS011;9585;51.018;4.282;2023-04-19T12:08:30;8.02;;;5.60;;
18905;SDS011;9585;51.018;4.282;2023-04-19T12:10:59;6.80;;;5.90;;
18905;SDS011;9585;51.018;4.282;2023-04-19T12:13:28;5.43;;;4.93;;
18905;SDS011;9585;51.018;4.282;2023-04-19T12:15:57;6.47;;;5.38;;
18905;SDS011;9585;51.018;4.282;2023-04-19T12:18:26;5.18;;;4.45;;
18905;SDS011;9585;51.018;4.282;2023-04-19T12:20:53;4.88;;;4.40;;
18905;SDS011;9585;51.018;4.282;2023-04-19T12:23:20;5.10;;;4.03;;
18905;SDS011;9585;51.018;4.282;2023-04-19T12:25:48;4.45;;;4.05;;
18905;SDS011;9585;51.018;4.282;2023-04-19T12:28:15;6.30;;;4.15;;
18905;SDS011;9585;51.018;4.282;2023-04-19T12:30:42;5.40;;;3.97;;
18905;SDS011;9585;51.018;4.282;2023-04-19T12:33:11;4.25;;;3.85;;
18905;SDS011;9585;51.018;4.282;2023-04-19T12:35:40;4.22;;;3.83;;
18905;SDS011;9585;51.018;4.282;2023-04-19T12:38:09;5.53;;;4.25;;
18905;SDS011;9585;51.018;4.282;2023-04-19T12:40:36;4.75;;;4.18;;
18905;SDS011;9585;51.018;4.282;2023-04-19T12:43:04;7.47;;;4.22;;
18905;SDS011;9585;51.018;4.282;2023-04-19T12:45:33;5.45;;;3.78;;
18905;SDS011;9585;51.018;4.282;2023-04-19T12:48:00;8.13;;;3.95;;
18905;SDS011;9585;51.018;4.282;2023-04-19T12:50:27;5.85;;;4.05;;
18905;SDS011;9585;51.018;4.282;2023-04-19T12:52:56;4.63;;;4.20;;
18905;SDS011;9585;51.018;4.282;2023-04-19T12:55:23;7.32;;;4.10;;
18905;SDS011;9585;51.018;4.282;2023-04-19T12:57:50;6.40;;;4.20;;
18905;SDS011;9585;51.018;4.282;2023-04-19T13:00:18;4.65;;;3.83;;
18905;SDS011;9585;51.018;4.282;2023-04-19T13:02:45;5.63;;;4.00;;
18905;SDS011;9585;51.018;4.282;2023-04-19T13:05:13;8.48;;;3.88;;
18905;SDS011;9585;51.018;4.282;2023-04-19T13:07:40;5.25;;;3.80;;
18905;SDS011;9585;51.018;4.282;2023-04-19T13:10:09;5.90;;;3.47;;
18905;SDS011;9585;51.018;4.282;2023-04-19T13:12:37;5.88;;;3.78;;
18905;SDS011;9585;51.018;4.282;2023-04-19T13:15:05;4.57;;;3.28;;
18905;SDS011;9585;51.018;4.282;2023-04-19T13:17:34;3.40;;;3.08;;
18905;SDS011;9585;51.018;4.282;2023-04-19T13:20:05;4.22;;;3.40;;
18905;SDS011;9585;51.018;4.282;2023-04-19T13:22:34;4.60;;;3.30;;
18905;SDS011;9585;51.018;4.282;2023-04-19T13:25:04;4.20;;;3.38;;
18905;SDS011;9585;51.018;4.282;2023-04-19T13:27:33;5.75;;;3.60;;
18905;SDS011;9585;51.018;4.282;2023-04-19T13:30:00;3.75;;;3.30;;
18905;SDS011;9585;51.018;4.282;2023-04-19T13:32:27;5.38;;;2.92;;
18905;SDS011;9585;51.018;4.282;2023-04-19T13:34:55;3.25;;;2.95;;
18905;SDS011;9585;51.018;4.282;2023-04-19T13:37:22;3.63;;;3.10;;
18905;SDS011;9585;51.018;4.282;2023-04-19T13:39:49;4.38;;;3.17;;
18905;SDS011;9585;51.018;4.282;2023-04-19T13:42:17;4.95;;;3.08;;
18905;SDS011;9585;51.018;4.282;2023-04-19T13:44:46;5.00;;;3.40;;
18905;SDS011;9585;51.018;4.282;2023-04-19T13:47:13;3.28;;;2.95;;
18905;SDS011;9585;51.018;4.282;2023-04-19T13:49:41;7.55;;;3.22;;
18905;SDS011;9585;51.018;4.282;2023-04-19T13:52:08;3.60;;;2.70;;
18905;SDS011;9585;51.018;4.282;2023-04-19T13:54:38;4.53;;;2.70;;
18905;SDS011;9585;51.018;4.282;2023-04-19T13:57:05;3.92;;;2.70;;
18905;SDS011;9585;51.018;4.282;2023-04-19T13:59:34;3.00;;;2.30;;
18905;SDS011;9585;51.018;4.282;2023-04-19T14:02:03;7.25;;;2.30;;
18905;SDS011;9585;51.018;4.282;2023-04-19T14:04:30;3.05;;;2.30;;
18905;SDS011;9585;51.018;4.282;2023-04-19T14:06:58;3.88;;;2.28;;
18905;SDS011;9585;51.018;4.282;2023-04-19T14:09:27;4.65;;;2.25;;
18905;SDS011;9585;51.018;4.282;2023-04-19T14:11:55;2.30;;;2.03;;
18905;SDS011;9585;51.018;4.282;2023-04-19T14:14:22;2.65;;;2.15;;
18905;SDS011;9585;51.018;4.282;2023-04-19T14:16:53;2.97;;;2.20;;
18905;SDS011;9585;51.018;4.282;2023-04-19T14:19:21;4.95;;;2.20;;
18905;SDS011;9585;51.018;4.282;2023-04-19T14:21:49;4.38;;;2.17;;
18905;SDS011;9585;51.018;4.282;2023-04-19T14:24:16;5.43;;;2.20;;
18905;SDS011;9585;51.018;4.282;2023-04-19T14:26:43;4.28;;;2.20;;
18905;SDS011;9585;51.018;4.282;2023-04-19T14:29:11;3.60;;;2.05;;
18905;SDS011;9585;51.018;4.282;2023-04-19T14:31:38;2.95;;;2.30;;
18905;SDS011;9585;51.018;4.282;2023-04-19T14:34:06;3.63;;;2.10;;
18905;SDS011;9585;51.018;4.282;2023-04-19T14:36:34;2.55;;;2.08;;
18905;SDS011;9585;51.018;4.282;2023-04-19T14:39:05;3.28;;;2.40;;
18905;SDS011;9585;51.018;4.282;2023-04-19T14:41:32;5.65;;;2.33;;
18905;SDS011;9585;51.018;4.282;2023-04-19T14:43:59;5.47;;;2.53;;
18905;SDS011;9585;51.018;4.282;2023-04-19T14:46:27;4.03;;;2.30;;
18905;SDS011;9585;51.018;4.282;2023-04-19T14:48:55;5.43;;;2.47;;
18905;SDS011;9585;51.018;4.282;2023-04-19T14:51:28;5.35;;;2.42;;
18905;SDS011;9585;51.018;4.282;2023-04-19T14:53:57;5.03;;;2.50;;
18905;SDS011;9585;51.018;4.282;2023-04-19T14:56:24;3.38;;;2.22;;
18905;SDS011;9585;51.018;4.282;2023-04-19T14:58:51;4.70;;;2.33;;
18905;SDS011;9585;51.018;4.282;2023-04-19T15:01:19;3.00;;;2.25;;
18905;SDS011;9585;51.018;4.282;2023-04-19T15:03:47;4.45;;;2.40;;
18905;SDS011;9585;51.018;4.282;2023-04-19T15:06:17;3.50;;;2.17;;